Overview Statistics Trail Chart Weather Telemetry Raw packets
 

This is the latest recevied weather packets stored in our database for station/object EA3CH. If no packets are shown the sender has not sent any weather packets the latest 10 day(s).

<< 40 41 42 43 44 45 46 >>
Time Temp. Humidity Pressure Rain* Wind** Luminosity Snow
1787829304 30.56° C 58% 1014.2 hPa 0 mm - 0 W/m² -
1787828406 30° C 53% 1014.1 hPa 0 mm - 0 W/m² -
1787828404 30° C 63% 1014.3 hPa 0 mm - 0 W/m² -
1787827504 28.89° C 66% 1014.6 hPa 0 mm - 0 W/m² -
1787826603 29.44° C 65% 1014.7 hPa 0 mm - 0 W/m² -
1787825704 28.33° C 68% 1014.9 hPa 0 mm - 0 W/m² -
1787824807 27.78° C 62% 1014.7 hPa 0 mm - 0 W/m² -
1787824804 27.78° C 71% 1014.8 hPa 0 mm - 0 W/m² -
1787823910 26.67° C 67% 1014.7 hPa 0 mm - 0 W/m² -
1787823910 26.67° C 76% 1014.9 hPa 0 mm - 0 W/m² -
1787823006 26.11° C 68% 1015 hPa 0 mm - 0 W/m² -
1787823004 26.11° C 76% 1015.2 hPa 0 mm - 0 W/m² -
1787822106 25° C 75% 1014.9 hPa 0 mm - 0 W/m² -
1787822104 25° C 85% 1015.1 hPa 0 mm - 0 W/m² -
1787821206 24.44° C 80% 1014.7 hPa 0 mm - 0 W/m² -
1787821204 24.44° C 87% 1014.9 hPa 0 mm - 0 W/m² -
1787820306 24.44° C 80% 1014.5 hPa 0 mm - 0 W/m² -
1787819404 24.44° C 85% 1014.4 hPa 0 mm - 0 W/m² -
1787818503 24.44° C 89% 1014.4 hPa 0 mm - 0 W/m² -
1787817604 24.44° C 91% 1014.3 hPa 0 mm - 0 W/m² -
1787816706 23.89° C 84% 1014.1 hPa 0 mm - 0 W/m² -
1787816704 23.33° C 94% 1014.3 hPa 0 mm - 0 W/m² -
1787815806 23.33° C 85% 1014.1 hPa 0 mm - 0 W/m² -
1787815803 22.78° C 95% 1014.3 hPa 0 mm - 0 W/m² -
1787814906 22.78° C 86% 1013.9 hPa 0 mm - 0 W/m² -

* Rain latest hour (hover to see other rain measurements)
** Current wind speed in m/s (hover to see current wind gust speed)